Time;durP1;ratioP1;P1;durP2;ratioP2;P2;SDS_P1;SDS_P2;PMS_P1;PMS_P2;Temp;Humidity;BMP_temperature;BMP_pressure;BME280_temperature;BME280_humidity;BME280_pressure;Samples;Min_cycle;Max_cycle;Signal;HPM_P1;HPM_P2
2022/06/04 00:01:11;;;;;;;25.63;19.73;;;21.60;68.80;;;;;;7367316;19;20022;-78
2022/06/04 00:03:40;;;;;;;29.15;20.65;;;21.50;70.10;;;;;;7392803;19;20015;-77
2022/06/04 00:06:08;;;;;;;24.02;19.90;;;21.50;69.90;;;;;;7393834;19;20014;-77
2022/06/04 00:08:37;;;;;;;20.02;16.80;;;21.60;70.10;;;;;;7353713;19;20094;-78
2022/06/04 00:16:32;;;;;;;25.25;19.65;;;21.50;70.10;;;;;;7369823;19;20872;-78
2022/06/04 00:19:01;;;;;;;23.48;18.38;;;21.50;70.20;;;;;;7391971;19;20310;-77
2022/06/04 00:21:30;;;;;;;25.45;18.80;;;21.50;70.20;;;;;;7366743;19;20023;-77
2022/06/04 00:24:00;;;;;;;20.90;17.83;;;21.50;70.40;;;;;;7371518;19;20077;-78
2022/06/04 00:26:28;;;;;;;25.20;18.42;;;21.60;70.50;;;;;;7372910;19;20013;-79
2022/06/04 00:29:00;;;;;;;23.88;17.73;;;21.60;70.50;;;;;;7368430;19;20090;-77
2022/06/04 00:31:28;;;;;;;;;;;21.60;70.20;;;;;;7393871;19;20022;-77
2022/06/04 00:33:57;;;;;;;21.52;18.10;;;21.70;70.40;;;;;;7396492;19;19926;-79
2022/06/04 00:36:26;;;;;;;25.73;18.75;;;21.60;70.00;;;;;;7395483;19;20021;-77
2022/06/04 00:38:55;;;;;;;24.27;19.55;;;21.60;70.10;;;;;;7392794;19;20434;-77
2022/06/04 00:41:36;;;;;;;26.42;19.23;;;21.60;70.30;;;;;;7398495;19;20322;-77
2022/06/04 00:44:44;;;;;;;27.35;19.63;;;21.50;70.10;;;;;;7399117;19;20026;-76
2022/06/04 00:47:22;;;;;;;31.88;19.58;;;21.50;70.40;;;;;;7393026;19;20007;-79
2022/06/04 00:49:51;;;;;;;26.52;18.70;;;21.50;71.30;;;;;;7393873;19;20018;-79
2022/06/04 00:52:21;;;;;;;22.15;18.70;;;21.50;70.50;;;;;;7391465;19;20487;-77
2022/06/04 00:54:53;;;;;;;30.63;19.27;;;21.50;70.90;;;;;;7392951;19;20057;-78
2022/06/04 00:57:42;;;;;;;26.67;20.25;;;21.50;70.80;;;;;;7392898;19;20094;-79
2022/06/04 01:00:17;;;;;;;29.23;21.50;;;21.40;71.00;;;;;;7393760;19;20017;-78
2022/06/04 01:03:13;;;;;;;21.30;18.42;;;21.30;71.00;;;;;;7395007;19;20102;-77
2022/06/04 01:06:04;;;;;;;27.08;18.17;;;21.30;71.30;;;;;;7394598;19;20025;-78
2022/06/04 01:09:00;;;;;;;23.00;18.63;;;21.30;71.00;;;;;;7388826;19;20045;-78
2022/06/04 01:12:09;;;;;;;29.23;19.88;;;21.30;71.40;;;;;;7391554;19;20019;-77
2022/06/04 01:14:37;;;;;;;26.13;20.27;;;21.20;71.40;;;;;;7392175;19;20030;-77
2022/06/04 01:17:17;;;;;;;25.17;19.00;;;21.30;71.30;;;;;;7390977;19;20058;-77
2022/06/04 01:20:05;;;;;;;23.20;16.60;;;21.30;71.10;;;;;;7391774;19;20589;-78
2022/06/04 01:22:50;;;;;;;22.05;18.08;;;21.30;70.80;;;;;;7390829;19;20468;-77
2022/06/04 01:25:32;;;;;;;24.67;17.92;;;21.40;70.70;;;;;;7390850;19;20159;-77
2022/06/04 01:28:05;;;;;;;;;;;21.40;70.60;;;;;;7393228;19;20022;-77
2022/06/04 01:30:39;;;;;;;22.65;16.42;;;21.50;70.80;;;;;;7391340;19;19957;-78
2022/06/04 01:33:12;;;;;;;21.85;17.27;;;21.50;70.20;;;;;;7391581;19;20010;-77
2022/06/04 01:35:48;;;;;;;26.80;17.42;;;21.40;70.00;;;;;;7389884;19;20078;-77
2022/06/04 01:38:24;;;;;;;20.80;15.60;;;21.40;70.20;;;;;;7393935;19;20014;-77
2022/06/04 01:41:07;;;;;;;23.80;16.02;;;21.40;70.10;;;;;;7392610;19;20015;-77
2022/06/04 01:43:42;;;;;;;19.85;15.93;;;21.40;70.10;;;;;;7391631;19;20033;-77
2022/06/04 01:46:17;;;;;;;21.42;15.40;;;21.40;70.20;;;;;;7390962;19;20107;-77
2022/06/04 01:48:49;;;;;;;20.42;14.50;;;21.40;70.10;;;;;;7393794;19;20434;-77
2022/06/04 01:51:20;;;;;;;;;;;21.50;70.10;;;;;;7399009;19;20031;-77
2022/06/04 01:53:54;;;;;;;19.50;14.40;;;21.60;69.80;;;;;;7400988;19;20267;-77
2022/06/04 01:56:27;;;;;;;18.17;13.85;;;21.50;69.20;;;;;;7402601;19;20078;-77
2022/06/04 01:59:04;;;;;;;21.98;14.40;;;21.50;69.30;;;;;;7399772;19;20031;-77
2022/06/04 02:01:35;;;;;;;21.83;15.80;;;21.50;69.60;;;;;;7403551;19;20022;-77
2022/06/04 02:04:09;;;;;;;19.60;15.70;;;21.50;69.50;;;;;;7403698;19;20018;-77
2022/06/04 02:06:43;;;;;;;22.35;14.40;;;21.50;69.60;;;;;;7398005;19;20118;-77
2022/06/04 02:09:16;;;;;;;21.70;16.50;;;21.50;69.50;;;;;;7398593;19;20316;-77
2022/06/04 02:11:53;;;;;;;24.63;18.02;;;21.40;70.00;;;;;;7402636;19;20045;-77
2022/06/04 02:14:24;;;;;;;19.35;16.30;;;21.30;70.10;;;;;;7400960;19;20082;-77
2022/06/04 02:16:57;;;;;;;20.65;15.93;;;21.30;70.20;;;;;;7400746;19;20344;-77
2022/06/04 02:19:26;;;;;;;18.15;15.40;;;21.30;70.40;;;;;;7398322;19;20303;-77
2022/06/04 02:21:56;;;;;;;19.65;16.67;;;21.40;70.30;;;;;;7404723;19;20022;-77
2022/06/04 02:24:25;;;;;;;25.95;17.35;;;21.30;70.40;;;;;;7398264;19;21945;-76
2022/06/04 02:26:55;;;;;;;25.27;16.08;;;21.30;70.50;;;;;;7398954;19;20029;-76
2022/06/04 02:29:26;;;;;;;17.95;15.32;;;21.40;70.50;;;;;;7399263;19;20023;-76
2022/06/04 02:32:04;;;;;;;20.38;14.88;;;21.30;70.40;;;;;;7401667;19;20414;-76
2022/06/04 02:34:37;;;;;;;16.45;13.23;;;21.30;70.30;;;;;;7403268;19;20031;-76
2022/06/04 02:37:16;;;;;;;19.67;14.15;;;21.30;70.10;;;;;;7401313;19;20026;-76
2022/06/04 02:39:52;;;;;;;17.55;13.65;;;21.40;70.10;;;;;;7404340;19;20034;-76
2022/06/04 02:42:40;;;;;;;16.98;13.52;;;21.40;69.80;;;;;;7403227;19;20014;-76
2022/06/04 02:45:16;;;;;;;21.05;14.35;;;21.40;69.60;;;;;;7402822;19;20314;-76
2022/06/04 02:47:51;;;;;;;18.10;13.77;;;21.40;69.60;;;;;;7405243;19;20017;-77
2022/06/04 02:50:24;;;;;;;26.55;13.52;;;21.40;69.50;;;;;;7404063;19;20332;-76
2022/06/04 02:52:56;;;;;;;18.55;14.75;;;21.40;69.40;;;;;;7401561;19;20454;-76
2022/06/04 02:55:28;;;;;;;20.45;13.65;;;21.40;69.30;;;;;;7404289;19;20015;-77
2022/06/04 02:58:01;;;;;;;18.63;13.02;;;21.40;69.40;;;;;;7400090;19;20018;-76
2022/06/04 03:00:33;;;;;;;16.77;13.70;;;21.40;69.30;;;;;;7403129;19;20022;-77
2022/06/04 03:03:01;;;;;;;18.10;13.45;;;21.40;69.10;;;;;;7399819;19;20019;-76
2022/06/04 03:05:31;;;;;;;16.77;13.35;;;21.40;69.10;;;;;;7401066;19;20022;-76
2022/06/04 03:08:04;;;;;;;19.45;15.18;;;21.40;69.10;;;;;;7402050;19;20040;-76
2022/06/04 03:10:34;;;;;;;19.95;14.13;;;21.30;69.30;;;;;;7401619;19;20018;-76
2022/06/04 03:13:04;;;;;;;16.17;13.23;;;21.30;69.80;;;;;;7402161;19;20098;-76
2022/06/04 03:15:35;;;;;;;14.75;12.32;;;21.30;69.80;;;;;;7400490;19;20022;-76
2022/06/04 03:18:04;;;;;;;;;;;21.30;69.70;;;;;;7402613;19;20328;-76
2022/06/04 03:20:32;;;;;;;16.45;12.93;;;21.40;69.50;;;;;;7397326;19;19914;-76
2022/06/04 03:23:01;;;;;;;17.80;13.90;;;21.40;69.40;;;;;;7397749;19;20039;-76
2022/06/04 03:25:30;;;;;;;21.25;14.60;;;21.40;69.40;;;;;;7402214;19;20043;-76
2022/06/04 03:27:59;;;;;;;20.10;15.13;;;21.30;69.60;;;;;;7397657;19;20010;-76
2022/06/04 03:30:28;;;;;;;15.38;13.30;;;21.30;70.00;;;;;;7402804;19;20018;-76
2022/06/04 03:33:00;;;;;;;19.63;12.95;;;21.30;69.90;;;;;;7401105;19;20019;-76
2022/06/04 03:35:29;;;;;;;16.58;13.00;;;21.30;70.00;;;;;;7401578;19;20357;-76
2022/06/04 03:37:58;;;;;;;16.05;12.80;;;21.30;70.10;;;;;;7397102;19;20010;-76
2022/06/04 03:40:27;;;;;;;18.45;14.10;;;21.30;70.10;;;;;;7400428;19;20018;-77
2022/06/04 03:42:56;;;;;;;17.75;14.05;;;21.40;70.00;;;;;;7397530;19;20587;-77
2022/06/04 03:45:26;;;;;;;21.20;13.90;;;21.40;69.90;;;;;;7401147;19;20348;-77
2022/06/04 03:47:55;;;;;;;31.25;15.20;;;21.40;69.80;;;;;;7398918;19;20022;-77
2022/06/04 03:50:29;;;;;;;19.48;16.08;;;21.40;70.00;;;;;;7400594;19;20034;-77
2022/06/04 03:52:58;;;;;;;23.77;16.58;;;21.10;70.60;;;;;;7400457;19;20025;-77
2022/06/04 03:55:27;;;;;;;20.98;15.48;;;21.20;70.80;;;;;;7398494;19;20022;-77
2022/06/04 03:57:57;;;;;;;25.65;15.30;;;21.20;71.00;;;;;;7397886;19;20043;-77
2022/06/04 04:00:29;;;;;;;18.70;13.95;;;21.20;70.90;;;;;;7398721;19;20105;-76
2022/06/04 04:03:00;;;;;;;21.20;13.95;;;21.30;70.90;;;;;;7399672;19;20031;-77
2022/06/04 04:05:34;;;;;;;20.13;13.60;;;21.30;70.90;;;;;;7396855;19;20014;-77
2022/06/04 04:08:05;;;;;;;17.98;14.38;;;21.30;70.70;;;;;;7401602;19;20351;-77
2022/06/04 04:10:34;;;;;;;24.63;15.63;;;21.30;70.30;;;;;;7401010;19;20027;-77
2022/06/04 04:13:03;;;;;;;18.73;14.10;;;21.30;70.40;;;;;;7396346;19;20026;-77
2022/06/04 04:15:32;;;;;;;15.38;13.75;;;21.30;70.50;;;;;;7401412;19;20426;-77
2022/06/04 04:18:01;;;;;;;20.75;13.30;;;21.40;70.50;;;;;;7398359;19;20422;-77
2022/06/04 04:20:35;;;;;;;18.73;14.18;;;21.30;70.40;;;;;;7398251;19;20352;-77
2022/06/04 04:23:06;;;;;;;20.45;14.13;;;21.30;70.50;;;;;;7397564;19;20047;-77
2022/06/04 04:25:35;;;;;;;17.20;12.95;;;21.30;70.50;;;;;;7397752;19;20099;-77
2022/06/04 04:28:04;;;;;;;16.42;13.45;;;21.30;70.50;;;;;;7400735;19;20035;-77
2022/06/04 04:30:35;;;;;;;22.50;13.95;;;21.30;70.60;;;;;;7396009;19;20019;-77
2022/06/04 04:33:05;;;;;;;18.48;14.25;;;21.30;70.50;;;;;;7398137;19;20022;-77
2022/06/04 04:35:38;;;;;;;20.98;14.38;;;21.40;70.40;;;;;;7397216;19;20015;-77
2022/06/04 04:38:07;;;;;;;20.65;14.70;;;21.30;70.20;;;;;;7397339;19;20026;-77
2022/06/04 04:40:37;;;;;;;16.20;13.00;;;21.30;70.30;;;;;;7394784;19;20031;-77
2022/06/04 04:43:06;;;;;;;20.73;13.48;;;21.30;70.50;;;;;;7399667;19;20094;-77
2022/06/04 04:45:35;;;;;;;15.05;13.45;;;21.30;70.70;;;;;;7402675;19;20426;-79
2022/06/04 04:48:04;;;;;;;18.83;16.17;;;21.30;70.60;;;;;;7398935;19;20022;-77
2022/06/04 04:50:38;;;;;;;39.67;31.27;;;21.30;70.70;;;;;;7395991;19;20330;-77
2022/06/04 04:53:10;;;;;;;43.60;30.65;;;21.40;70.50;;;;;;7397273;19;20445;-77
2022/06/04 04:55:40;;;;;;;26.02;19.85;;;21.30;70.20;;;;;;7394568;19;20015;-77
2022/06/04 04:58:09;;;;;;;24.73;21.08;;;21.30;70.40;;;;;;7393966;19;20090;-78
2022/06/04 05:00:38;;;;;;;16.50;13.35;;;21.30;70.40;;;;;;7397313;19;20375;-77
2022/06/04 05:03:06;;;;;;;20.08;14.43;;;21.30;70.50;;;;;;7394233;19;20018;-77
2022/06/04 05:05:38;;;;;;;17.65;15.38;;;21.30;70.50;;;;;;7394176;19;20035;-77
2022/06/04 05:08:07;;;;;;;17.95;13.85;;;21.30;70.80;;;;;;7396405;19;20011;-77
2022/06/04 05:10:36;;;;;;;19.50;13.63;;;21.30;71.00;;;;;;7395162;19;20025;-76
2022/06/04 05:13:06;;;;;;;17.70;12.88;;;21.30;70.90;;;;;;7398388;19;20023;-76
2022/06/04 05:15:35;;;;;;;16.20;13.65;;;21.40;70.90;;;;;;7390017;19;20516;-77
2022/06/04 05:18:04;;;;;;;20.23;14.27;;;21.40;70.80;;;;;;7396178;19;20043;-77
2022/06/04 05:20:34;;;;;;;23.45;15.30;;;21.30;70.50;;;;;;7396974;19;20530;-77
2022/06/04 05:23:06;;;;;;;18.77;14.98;;;21.30;70.50;;;;;;7395863;19;20040;-77
2022/06/04 05:25:35;;;;;;;32.28;24.35;;;21.30;70.80;;;;;;7400686;19;20050;-77
2022/06/04 05:28:04;;;;;;;22.95;17.67;;;21.30;71.00;;;;;;7402667;19;20046;-77
2022/06/04 05:30:34;;;;;;;19.20;15.73;;;21.30;71.00;;;;;;7406486;19;20330;-78
2022/06/04 05:33:03;;;;;;;16.45;14.55;;;21.30;71.10;;;;;;7400380;19;20422;-77
2022/06/04 05:35:32;;;;;;;19.52;13.40;;;21.40;71.10;;;;;;7397827;19;20914;-77
2022/06/04 05:38:00;;;;;;;21.58;14.27;;;21.40;71.10;;;;;;7397967;19;20026;-77
2022/06/04 05:40:32;;;;;;;166.25;132.57;;;21.50;71.10;;;;;;7401815;19;20010;-77
2022/06/04 05:43:02;;;;;;;25.52;18.15;;;21.50;71.40;;;;;;7404655;19;20022;-78
2022/06/04 05:45:31;;;;;;;17.30;12.20;;;21.60;71.30;;;;;;7397211;19;20014;-75
2022/06/04 05:48:01;;;;;;;15.38;11.93;;;21.70;71.30;;;;;;7399326;19;20007;-75
2022/06/04 05:50:29;;;;;;;21.65;12.75;;;21.70;71.10;;;;;;7401083;19;20014;-75
2022/06/04 05:52:59;;;;;;;13.98;10.88;;;21.60;70.80;;;;;;7393353;19;20085;-75
2022/06/04 05:55:27;;;;;;;14.68;11.77;;;21.60;70.80;;;;;;7401208;19;20074;-75
2022/06/04 05:57:59;;;;;;;15.98;11.32;;;21.50;70.90;;;;;;7400089;19;20432;-75
2022/06/04 06:00:28;;;;;;;24.42;11.63;;;21.30;71.30;;;;;;7401722;19;20018;-75
2022/06/04 06:02:57;;;;;;;16.88;10.70;;;21.20;71.70;;;;;;7397616;19;20070;-75
2022/06/04 06:05:26;;;;;;;17.80;11.93;;;21.20;72.00;;;;;;7399421;19;20014;-75
2022/06/04 06:07:55;;;;;;;19.23;13.35;;;21.00;72.60;;;;;;7404379;19;20031;-75
2022/06/04 06:10:24;;;;;;;15.20;11.63;;;21.10;72.80;;;;;;7396808;19;20100;-75
2022/06/04 06:12:53;;;;;;;18.65;11.70;;;21.10;72.70;;;;;;7399083;19;20422;-76
2022/06/04 06:15:24;;;;;;;19.80;12.68;;;21.20;72.80;;;;;;7401599;19;20032;-75
2022/06/04 06:17:54;;;;;;;16.98;13.10;;;21.20;72.90;;;;;;7400874;19;20018;-75
2022/06/04 06:20:22;;;;;;;19.80;12.98;;;21.20;72.80;;;;;;7401115;19;20006;-75
2022/06/04 06:22:51;;;;;;;19.40;12.95;;;21.20;72.80;;;;;;7400955;19;20014;-76
2022/06/04 06:25:21;;;;;;;26.23;17.52;;;21.20;72.90;;;;;;7400840;19;20010;-75
2022/06/04 06:27:50;;;;;;;18.67;14.13;;;21.30;73.30;;;;;;7397397;19;20041;-76
2022/06/04 06:30:19;;;;;;;20.13;13.32;;;21.30;73.30;;;;;;7399312;19;20467;-76
2022/06/04 06:32:50;;;;;;;21.35;12.45;;;21.30;73.40;;;;;;7399123;19;20041;-76
2022/06/04 06:35:19;;;;;;;17.02;12.93;;;21.30;74.10;;;;;;7400361;19;20015;-75
2022/06/04 06:37:49;;;;;;;22.42;13.48;;;21.30;73.30;;;;;;7399910;19;20013;-75
2022/06/04 06:40:18;;;;;;;21.50;13.57;;;21.30;73.30;;;;;;7398180;19;20010;-75
2022/06/04 06:42:47;;;;;;;17.50;12.70;;;21.30;73.30;;;;;;7399625;19;20024;-76
2022/06/04 06:45:16;;;;;;;16.80;12.63;;;21.30;73.30;;;;;;7400041;19;20014;-76
2022/06/04 06:47:44;;;;;;;18.60;14.07;;;21.30;73.40;;;;;;7400603;19;20030;-76
2022/06/04 06:50:18;;;;;;;24.90;15.48;;;21.30;73.30;;;;;;7398579;19;20011;-75
2022/06/04 06:52:47;;;;;;;22.20;15.60;;;21.30;73.40;;;;;;7394781;19;20602;-76
2022/06/04 06:55:16;;;;;;;31.40;15.65;;;21.30;73.60;;;;;;7402140;19;20014;-75
2022/06/04 06:57:45;;;;;;;30.35;16.92;;;21.30;73.90;;;;;;7398356;19;20027;-75
2022/06/04 07:00:15;;;;;;;29.80;16.92;;;21.30;74.40;;;;;;7397771;19;20015;-75
2022/06/04 07:02:44;;;;;;;30.20;17.73;;;21.30;74.80;;;;;;7402690;19;20017;-75
2022/06/04 07:05:16;;;;;;;22.20;17.35;;;21.20;74.70;;;;;;7394432;19;20043;-75
2022/06/04 07:07:45;;;;;;;26.30;16.88;;;21.20;75.40;;;;;;7398722;19;20048;-75
2022/06/04 07:10:14;;;;;;;29.90;17.52;;;21.20;75.60;;;;;;7395164;19;20438;-75
2022/06/04 07:12:44;;;;;;;33.85;19.48;;;21.30;76.00;;;;;;7398353;19;20010;-75
2022/06/04 07:15:13;;;;;;;33.47;19.25;;;21.20;75.80;;;;;;7399008;19;20014;-75
2022/06/04 07:17:42;;;;;;;22.77;15.95;;;21.20;76.10;;;;;;7397593;19;20552;-75
2022/06/04 07:20:12;;;;;;;21.98;16.20;;;21.30;76.50;;;;;;7398046;19;20018;-75
2022/06/04 07:22:44;;;;;;;25.98;16.92;;;21.30;76.30;;;;;;7394100;19;20025;-75
2022/06/04 07:25:12;;;;;;;26.88;17.55;;;21.30;76.50;;;;;;7400466;19;20103;-75
2022/06/04 07:27:41;;;;;;;22.55;17.55;;;21.30;76.40;;;;;;7393400;19;20039;-75
2022/06/04 07:30:12;;;;;;;25.23;17.80;;;21.20;76.60;;;;;;7395132;19;20445;-75
2022/06/04 07:32:41;;;;;;;23.00;17.25;;;21.10;76.60;;;;;;7397043;19;20018;-74
2022/06/04 07:35:10;;;;;;;27.65;18.27;;;21.20;77.60;;;;;;7395685;19;20026;-75
2022/06/04 07:37:39;;;;;;;26.25;17.40;;;21.10;76.80;;;;;;7396845;19;20449;-75
2022/06/04 07:40:12;;;;;;;25.08;18.08;;;21.20;76.80;;;;;;7397592;19;20030;-75
2022/06/04 07:42:42;;;;;;;30.17;18.05;;;21.10;76.90;;;;;;7399710;19;20019;-75
2022/06/04 07:45:12;;;;;;;25.00;17.25;;;21.30;77.40;;;;;;7393336;19;20018;-75
2022/06/04 07:47:41;;;;;;;19.70;16.17;;;21.40;77.70;;;;;;7395387;19;20027;-75
2022/06/04 07:50:11;;;;;;;19.13;15.13;;;21.50;77.80;;;;;;7398956;19;20430;-75
2022/06/04 07:52:40;;;;;;;19.25;15.38;;;21.70;76.70;;;;;;7400117;19;20014;-77
2022/06/04 07:55:13;;;;;;;23.70;14.43;;;21.80;76.30;;;;;;7397325;19;20010;-74
2022/06/04 07:57:42;;;;;;;25.58;14.25;;;21.80;76.00;;;;;;7398999;19;20636;-74
2022/06/04 08:00:13;;;;;;;20.08;14.40;;;21.90;76.00;;;;;;7395996;19;20014;-74
2022/06/04 08:02:42;;;;;;;21.52;15.55;;;22.00;76.00;;;;;;7396967;19;20498;-75
2022/06/04 08:05:11;;;;;;;21.00;16.33;;;22.10;76.10;;;;;;7396966;19;20023;-75
2022/06/04 08:07:40;;;;;;;22.08;15.50;;;22.20;76.30;;;;;;7396404;19;20043;-74
2022/06/04 08:10:14;;;;;;;19.85;15.73;;;22.20;76.10;;;;;;7397210;19;20018;-75
2022/06/04 08:12:47;;;;;;;15.98;13.23;;;22.30;76.20;;;;;;7398941;19;20014;-75
2022/06/04 08:15:17;;;;;;;15.90;11.80;;;22.40;75.00;;;;;;7399335;19;20025;-75
2022/06/04 08:17:49;;;;;;;21.30;13.88;;;22.30;73.70;;;;;;7394978;19;20074;-78
2022/06/04 08:20:19;;;;;;;16.98;12.18;;;22.00;73.70;;;;;;7396180;19;20105;-76
2022/06/04 08:22:48;;;;;;;21.77;14.90;;;22.20;74.40;;;;;;7399807;19;20010;-76
2022/06/04 08:25:20;;;;;;;31.17;19.20;;;22.10;74.10;;;;;;7400849;19;20336;-79
2022/06/04 08:27:56;;;;;;;30.83;19.95;;;22.10;74.00;;;;;;7396928;19;20043;-73
2022/06/04 08:30:36;;;;;;;17.13;11.60;;;22.00;74.10;;;;;;7396303;19;20035;-74
2022/06/04 08:33:28;;;;;;;15.65;10.77;;;21.80;74.70;;;;;;7398899;19;20443;-74
2022/06/04 08:35:59;;;;;;;17.48;10.90;;;22.00;74.70;;;;;;7395983;19;20031;-74
2022/06/04 08:38:29;;;;;;;18.70;11.25;;;22.10;74.50;;;;;;7395065;19;20031;-74
2022/06/04 08:41:05;;;;;;;21.50;12.50;;;22.20;74.40;;;;;;7392815;19;20014;-73
2022/06/04 08:43:43;;;;;;;18.00;11.85;;;22.20;74.40;;;;;;7396656;19;20025;-75
2022/06/04 08:46:17;;;;;;;18.63;12.32;;;22.20;74.30;;;;;;7401572;19;20081;-73
2022/06/04 08:48:48;;;;;;;24.55;13.27;;;22.30;74.60;;;;;;7400282;19;20047;-74
2022/06/04 08:51:32;;;;;;;25.50;13.77;;;22.30;74.60;;;;;;7401128;19;20015;-73
2022/06/04 08:57:32;;;;;;;15.90;12.45;;;22.30;74.70;;;;;;7396675;19;20014;-74
2022/06/04 09:00:13;;;;;;;17.30;12.60;;;22.50;74.30;;;;;;7398906;19;20011;-74
2022/06/04 09:02:58;;;;;;;18.73;11.45;;;22.50;73.80;;;;;;7401078;19;20014;-74
2022/06/04 09:05:45;;;;;;;17.73;11.65;;;22.60;73.70;;;;;;7331091;19;20054;-74
2022/06/04 09:08:27;;;;;;;13.43;10.57;;;22.60;73.80;;;;;;7361936;19;20014;-74
2022/06/04 09:11:04;;;;;;;17.33;11.13;;;22.60;74.00;;;;;;7374818;19;20320;-74
2022/06/04 09:13:48;;;;;;;15.85;10.20;;;22.60;72.40;;;;;;7369535;19;20113;-74
2022/06/04 09:16:33;;;;;;;14.02;9.30;;;22.70;72.60;;;;;;7372302;19;20323;-74
2022/06/04 09:19:22;;;;;;;14.55;9.35;;;22.70;72.50;;;;;;7395207;19;20018;-74
2022/06/04 09:21:57;;;;;;;14.50;10.07;;;22.70;72.60;;;;;;7375500;19;20059;-73
2022/06/04 09:24:28;;;;;;;13.75;10.55;;;22.80;71.70;;;;;;7368041;19;20022;-74
2022/06/04 09:27:37;;;;;;;17.90;11.02;;;22.90;71.70;;;;;;7372167;19;20015;-75
2022/06/04 09:30:41;;;;;;;53.92;33.90;;;22.80;71.70;;;;;;7365469;19;20010;-75
2022/06/04 09:33:37;;;;;;;20.42;13.20;;;22.90;71.90;;;;;;7369598;19;20062;-74
2022/06/04 09:36:19;;;;;;;18.75;14.30;;;22.90;70.60;;;;;;7362121;19;20027;-74
2022/06/04 09:39:37;;;;;;;25.65;15.52;;;22.90;71.00;;;;;;7364033;19;20038;-74
2022/06/04 09:42:32;;;;;;;22.65;16.30;;;22.80;72.30;;;;;;7365613;19;20545;-75
2022/06/04 09:45:26;;;;;;;20.55;16.10;;;22.90;72.00;;;;;;7375125;19;20402;-75
2022/06/04 09:48:38;;;;;;;17.35;14.55;;;22.90;71.90;;;;;;7375716;19;20042;-75
2022/06/04 09:51:27;;;;;;;22.13;14.40;;;22.90;72.00;;;;;;7364553;19;20014;-75
2022/06/04 09:54:11;;;;;;;20.23;15.80;;;23.10;71.50;;;;;;7373305;19;20350;-75
2022/06/04 09:56:47;;;;;;;17.50;13.75;;;23.20;71.40;;;;;;7376037;19;20035;-75
2022/06/04 09:59:28;;;;;;;17.75;12.23;;;23.10;69.10;;;;;;7372666;19;20433;-75
2022/06/04 10:02:07;;;;;;;15.70;12.23;;;23.30;70.40;;;;;;7372082;19;20422;-80
2022/06/04 10:05:18;;;;;;;26.40;19.67;;;23.40;69.60;;;;;;7374250;19;20018;-75
2022/06/04 10:07:51;;;;;;;19.58;13.52;;;23.40;68.80;;;;;;7369891;19;20019;-75
2022/06/04 10:10:34;;;;;;;16.83;11.32;;;23.50;68.20;;;;;;7370001;19;20019;-74
2022/06/04 10:15:56;;;;;;;16.17;8.70;;;23.60;67.60;;;;;;7368522;19;20036;-75
2022/06/04 10:18:32;;;;;;;12.32;9.02;;;23.70;66.40;;;;;;7361196;19;20044;-74
2022/06/04 10:21:07;;;;;;;13.65;9.50;;;23.80;67.30;;;;;;7372235;19;20404;-76
2022/06/04 10:23:45;;;;;;;15.60;11.57;;;23.90;67.10;;;;;;7369868;19;20019;-76
2022/06/04 10:26:30;;;;;;;15.07;9.98;;;23.90;64.90;;;;;;7371661;19;20010;-76
2022/06/04 10:29:17;;;;;;;16.10;8.23;;;23.90;66.10;;;;;;7372122;19;20019;-75
2022/06/04 10:31:58;;;;;;;14.07;8.75;;;24.00;66.60;;;;;;7370154;19;20018;-75
2022/06/04 10:34:30;;;;;;;;;;;24.10;65.60;;;;;;7372762;19;20022;-76
2022/06/04 10:37:15;;;;;;;14.82;8.18;;;24.30;66.10;;;;;;7394374;19;19934;-76
2022/06/04 10:39:53;;;;;;;11.05;7.80;;;24.40;66.00;;;;;;7371753;19;20010;-75
2022/06/04 10:42:32;;;;;;;12.38;7.60;;;24.50;65.80;;;;;;7369482;19;20457;-75
2022/06/04 10:45:17;;;;;;;14.25;7.47;;;24.60;65.00;;;;;;7371597;19;20018;-76
2022/06/04 10:47:54;;;;;;;12.57;6.88;;;24.60;64.40;;;;;;7371007;19;20039;-76
2022/06/04 10:53:40;;;;;;;11.40;6.50;;;24.80;64.50;;;;;;7372379;19;20022;-76
2022/06/04 10:56:17;;;;;;;9.25;4.85;;;24.90;63.60;;;;;;7373823;19;20076;-75
2022/06/04 10:58:52;;;;;;;8.60;4.72;;;25.00;62.50;;;;;;7368051;19;20019;-76
2022/06/04 11:01:31;;;;;;;8.82;4.90;;;25.10;62.00;;;;;;7366883;19;20114;-76
2022/06/04 11:04:10;;;;;;;8.45;4.55;;;25.10;60.70;;;;;;7393612;19;20043;-75
2022/06/04 11:06:45;;;;;;;6.88;4.15;;;25.20;60.30;;;;;;7370171;19;20095;-75
2022/06/04 11:09:20;;;;;;;6.47;3.80;;;25.20;58.90;;;;;;7369071;19;20042;-76
2022/06/04 11:11:53;;;;;;;4.07;2.10;;;25.30;59.70;;;;;;7373014;19;20026;-76
2022/06/04 11:14:33;;;;;;;2.67;2.20;;;25.30;59.00;;;;;;7370657;19;20022;-75
2022/06/04 11:17:07;;;;;;;9.27;5.32;;;25.30;58.10;;;;;;7371203;19;20018;-76
2022/06/04 11:19:41;;;;;;;4.95;3.50;;;25.40;58.80;;;;;;7368261;19;20019;-76
2022/06/04 11:22:17;;;;;;;4.03;2.38;;;25.50;59.30;;;;;;7370006;19;20401;-76
2022/06/04 11:24:54;;;;;;;3.30;1.65;;;25.50;57.60;;;;;;7390034;19;20014;-76
2022/06/04 11:27:27;;;;;;;4.75;1.83;;;25.60;56.80;;;;;;7369747;19;20052;-76
2022/06/04 11:29:58;;;;;;;2.38;1.27;;;25.70;56.10;;;;;;7369210;19;20017;-76
2022/06/04 11:32:35;;;;;;;2.30;1.30;;;25.80;55.40;;;;;;7369583;19;20014;-76
2022/06/04 11:35:29;;;;;;;4.53;1.30;;;25.80;54.80;;;;;;7371681;19;20024;-76
2022/06/04 11:38:20;;;;;;;3.85;1.80;;;25.90;54.50;;;;;;7368046;19;20055;-76
2022/06/04 11:40:59;;;;;;;1.77;1.40;;;25.90;54.00;;;;;;7372127;19;20018;-76
2022/06/04 11:43:43;;;;;;;5.13;1.90;;;26.00;53.40;;;;;;7370541;19;20076;-76
2022/06/04 11:46:25;;;;;;;2.92;1.70;;;26.00;52.90;;;;;;7367659;19;20026;-76
2022/06/04 11:49:07;;;;;;;2.03;1.60;;;26.10;53.50;;;;;;7391083;19;20010;-76
2022/06/04 11:52:02;;;;;;;2.92;1.73;;;26.10;53.90;;;;;;7369637;19;20043;-75
2022/06/04 11:54:46;;;;;;;27.70;19.92;;;26.20;53.90;;;;;;7368621;19;20129;-76
2022/06/04 11:57:26;;;;;;;39.88;29.95;;;26.20;53.10;;;;;;7371095;19;20030;-76
2022/06/04 12:00:18;;;;;;;6.63;2.92;;;26.30;53.70;;;;;;7369931;19;20101;-77
2022/06/04 12:02:55;;;;;;;4.65;2.53;;;26.30;53.10;;;;;;7369317;19;20014;-76
2022/06/04 12:05:40;;;;;;;6.32;2.30;;;26.40;54.00;;;;;;7366003;19;20027;-76
2022/06/04 12:08:15;;;;;;;4.05;1.98;;;26.50;54.80;;;;;;7369939;19;20773;-77
2022/06/04 12:10:56;;;;;;;2.13;1.77;;;26.60;55.20;;;;;;7367764;19;20015;-76
2022/06/04 12:13:37;;;;;;;3.83;1.90;;;26.70;55.40;;;;;;7365400;19;20012;-77
2022/06/04 12:16:09;;;;;;;;;;;26.80;54.40;;;;;;7379079;19;20315;-78
2022/06/04 12:18:46;;;;;;;3.55;1.77;;;26.90;54.60;;;;;;7393259;19;19926;-77
2022/06/04 12:24:22;;;;;;;3.38;1.60;;;27.10;53.80;;;;;;7369911;19;20009;-77
2022/06/04 12:26:52;;;;;;;4.43;1.98;;;27.10;52.40;;;;;;7369118;19;20301;-77
2022/06/04 12:29:38;;;;;;;3.38;1.75;;;27.20;52.50;;;;;;7367315;19;20085;-77
2022/06/04 12:32:21;;;;;;;1.88;1.65;;;27.30;52.90;;;;;;7370692;19;20349;-77
2022/06/04 12:34:53;;;;;;;3.00;1.55;;;27.40;52.40;;;;;;7368914;19;20013;-77
2022/06/04 12:37:26;;;;;;;3.15;1.80;;;27.50;51.70;;;;;;7370176;19;20011;-77
2022/06/04 12:39:55;;;;;;;4.32;1.65;;;27.60;51.10;;;;;;7389035;19;20324;-77
2022/06/04 12:42:26;;;;;;;4.35;1.77;;;27.80;50.40;;;;;;7367508;19;20472;-77
2022/06/04 12:45:02;;;;;;;2.28;1.65;;;28.00;50.80;;;;;;7370571;19;20441;-78
2022/06/04 12:47:34;;;;;;;3.50;1.48;;;28.20;51.30;;;;;;7372289;19;20142;-77
2022/06/04 12:50:07;;;;;;;2.53;1.40;;;28.30;50.10;;;;;;7370056;19;20022;-77
2022/06/04 12:52:45;;;;;;;3.17;2.80;;;28.50;49.20;;;;;;7371335;19;20025;-77
2022/06/04 12:55:24;;;;;;;4.82;1.90;;;28.60;48.40;;;;;;7368698;19;20007;-77
2022/06/04 12:57:56;;;;;;;2.08;1.48;;;28.50;49.40;;;;;;7388224;19;20111;-77
2022/06/04 13:00:36;;;;;;;3.08;1.70;;;28.50;49.70;;;;;;7367382;19;20022;-77
2022/06/04 13:03:35;;;;;;;1.98;1.48;;;28.50;50.00;;;;;;7369042;19;20022;-77
2022/06/04 13:06:29;;;;;;;4.05;1.70;;;28.50;49.70;;;;;;7366010;19;20035;-77
2022/06/04 13:09:09;;;;;;;3.08;1.50;;;28.40;49.70;;;;;;7369344;19;20010;-77
2022/06/04 13:12:02;;;;;;;1.63;1.52;;;28.30;50.40;;;;;;7368265;19;20015;-77
2022/06/04 13:14:43;;;;;;;2.53;1.40;;;28.10;50.60;;;;;;7369493;19;20014;-77
2022/06/04 13:17:30;;;;;;;;;;;28.00;50.90;;;;;;7367688;19;21008;-77
2022/06/04 13:20:21;;;;;;;3.92;1.98;;;27.80;50.80;;;;;;7369769;19;19919;-77
2022/06/04 13:22:53;;;;;;;4.35;1.52;;;27.60;51.20;;;;;;7367458;19;20050;-77
2022/06/04 13:25:30;;;;;;;2.63;1.48;;;27.40;51.80;;;;;;7368045;19;20465;-78
2022/06/04 13:28:00;;;;;;;8.23;1.58;;;27.40;51.70;;;;;;7389514;19;20023;-78
2022/06/04 13:30:32;;;;;;;25.17;1.85;;;27.30;51.00;;;;;;7366336;19;20018;-77